aviador You're here:

ZMUB Decoded Metar

ULAN BATOR in MONGOLIA
Report Time2017-04-29 17:00:00
UTC Time2017-04-29 17:45:15
Flight Rules vfr VFR
WindVRB at 2 kt
Visibility9999 m
Phenomena:N/A
Clouds:N/A
Expected CloudBase > 3,200 ft AGL from Temp-Dew spread
CeilingNone
Temp03°C (ISA -3)
Dew Point-5°C (56% RH)
AAT-0.3°C
QNH1013 hPa
Density Alt4,032 ft
Elevation4,364 ft
Report Wrong Elevation
Raw Report
ZMUB 291700Z VRB01MPS CAVOK 03/M05 Q1013 NOSIG RMK QFE652.9 53=

Extra information for ZMUB:More info

Metar Taf Metar & Taf Last 4 Metars F.Rules Stats Wind Profile Meteogram Temp Stats Airport Information Weather charts Add Link Nearby VenuesMetar ALERT Operation Metar Decoded Social comments